sensor_id;sensor_type;location;lat;lon;timestamp;P1;durP1;ratioP1;P2;durP2;ratioP2
62037;SDS011;47991;42.974;12.082;2023-09-30T00:02:20;8.40;;;4.60;;
62037;SDS011;47991;42.974;12.082;2023-09-30T00:04:47;8.80;;;5.50;;
62037;SDS011;47991;42.974;12.082;2023-09-30T00:07:14;8.20;;;4.50;;
62037;SDS011;47991;42.974;12.082;2023-09-30T00:09:41;8.50;;;4.90;;
62037;SDS011;47991;42.974;12.082;2023-09-30T00:12:07;9.50;;;4.50;;
62037;SDS011;47991;42.974;12.082;2023-09-30T00:14:46;10.20;;;4.50;;
62037;SDS011;47991;42.974;12.082;2023-09-30T00:17:14;10.00;;;5.80;;
62037;SDS011;47991;42.974;12.082;2023-09-30T00:19:41;9.10;;;5.20;;
62037;SDS011;47991;42.974;12.082;2023-09-30T00:22:08;8.80;;;5.90;;
62037;SDS011;47991;42.974;12.082;2023-09-30T00:24:35;9.00;;;4.60;;
62037;SDS011;47991;42.974;12.082;2023-09-30T00:27:01;8.80;;;5.10;;
62037;SDS011;47991;42.974;12.082;2023-09-30T00:29:28;10.40;;;4.90;;
62037;SDS011;47991;42.974;12.082;2023-09-30T00:31:55;8.40;;;5.10;;
62037;SDS011;47991;42.974;12.082;2023-09-30T00:34:22;10.10;;;4.80;;
62037;SDS011;47991;42.974;12.082;2023-09-30T00:36:49;9.00;;;4.40;;
62037;SDS011;47991;42.974;12.082;2023-09-30T00:39:16;10.10;;;5.30;;
62037;SDS011;47991;42.974;12.082;2023-09-30T00:41:42;10.60;;;5.10;;
62037;SDS011;47991;42.974;12.082;2023-09-30T00:44:09;9.20;;;5.00;;
62037;SDS011;47991;42.974;12.082;2023-09-30T00:46:37;10.40;;;4.80;;
62037;SDS011;47991;42.974;12.082;2023-09-30T00:49:08;8.90;;;4.90;;
62037;SDS011;47991;42.974;12.082;2023-09-30T00:51:36;8.60;;;4.80;;
62037;SDS011;47991;42.974;12.082;2023-09-30T00:54:04;10.10;;;5.10;;
62037;SDS011;47991;42.974;12.082;2023-09-30T00:56:32;9.90;;;5.50;;
62037;SDS011;47991;42.974;12.082;2023-09-30T00:58:59;9.30;;;5.50;;
62037;SDS011;47991;42.974;12.082;2023-09-30T01:01:27;8.70;;;4.70;;
62037;SDS011;47991;42.974;12.082;2023-09-30T01:03:54;8.60;;;4.40;;
62037;SDS011;47991;42.974;12.082;2023-09-30T01:06:21;10.50;;;5.30;;
62037;SDS011;47991;42.974;12.082;2023-09-30T01:08:48;9.60;;;4.90;;
62037;SDS011;47991;42.974;12.082;2023-09-30T01:11:15;8.50;;;4.40;;
62037;SDS011;47991;42.974;12.082;2023-09-30T01:13:43;9.80;;;5.00;;
62037;SDS011;47991;42.974;12.082;2023-09-30T01:16:11;9.00;;;4.90;;
62037;SDS011;47991;42.974;12.082;2023-09-30T01:18:38;10.30;;;6.20;;
62037;SDS011;47991;42.974;12.082;2023-09-30T01:21:09;8.00;;;4.50;;
62037;SDS011;47991;42.974;12.082;2023-09-30T01:23:36;8.20;;;4.60;;
62037;SDS011;47991;42.974;12.082;2023-09-30T01:26:04;8.70;;;4.90;;
62037;SDS011;47991;42.974;12.082;2023-09-30T01:28:33;12.60;;;5.20;;
62037;SDS011;47991;42.974;12.082;2023-09-30T01:31:00;8.40;;;4.70;;
62037;SDS011;47991;42.974;12.082;2023-09-30T01:33:28;8.60;;;4.90;;
62037;SDS011;47991;42.974;12.082;2023-09-30T01:35:54;10.40;;;5.10;;
62037;SDS011;47991;42.974;12.082;2023-09-30T01:38:21;7.90;;;4.50;;
62037;SDS011;47991;42.974;12.082;2023-09-30T01:40:48;9.30;;;5.30;;
62037;SDS011;47991;42.974;12.082;2023-09-30T01:43:15;8.30;;;5.00;;
62037;SDS011;47991;42.974;12.082;2023-09-30T01:45:43;8.70;;;4.80;;
62037;SDS011;47991;42.974;12.082;2023-09-30T01:48:10;10.50;;;5.70;;
62037;SDS011;47991;42.974;12.082;2023-09-30T01:50:38;9.80;;;5.00;;
62037;SDS011;47991;42.974;12.082;2023-09-30T01:53:08;9.10;;;5.20;;
62037;SDS011;47991;42.974;12.082;2023-09-30T01:55:36;10.10;;;5.10;;
62037;SDS011;47991;42.974;12.082;2023-09-30T01:58:03;9.80;;;4.80;;
62037;SDS011;47991;42.974;12.082;2023-09-30T02:00:30;9.60;;;5.10;;
62037;SDS011;47991;42.974;12.082;2023-09-30T02:02:57;9.30;;;4.90;;
62037;SDS011;47991;42.974;12.082;2023-09-30T02:05:24;12.70;;;5.30;;
62037;SDS011;47991;42.974;12.082;2023-09-30T02:07:51;8.00;;;4.30;;
62037;SDS011;47991;42.974;12.082;2023-09-30T02:10:18;10.70;;;4.70;;
62037;SDS011;47991;42.974;12.082;2023-09-30T02:12:46;11.40;;;5.10;;
62037;SDS011;47991;42.974;12.082;2023-09-30T02:15:13;10.40;;;6.10;;
62037;SDS011;47991;42.974;12.082;2023-09-30T02:17:41;9.90;;;4.50;;
62037;SDS011;47991;42.974;12.082;2023-09-30T02:20:12;7.70;;;4.70;;
62037;SDS011;47991;42.974;12.082;2023-09-30T02:22:39;9.80;;;5.00;;
62037;SDS011;47991;42.974;12.082;2023-09-30T02:25:06;8.70;;;4.70;;
62037;SDS011;47991;42.974;12.082;2023-09-30T02:27:36;12.70;;;4.90;;
62037;SDS011;47991;42.974;12.082;2023-09-30T02:30:03;9.00;;;4.80;;
62037;SDS011;47991;42.974;12.082;2023-09-30T02:32:30;9.00;;;4.80;;
62037;SDS011;47991;42.974;12.082;2023-09-30T02:34:56;10.00;;;5.40;;
62037;SDS011;47991;42.974;12.082;2023-09-30T02:37:23;10.30;;;5.50;;
62037;SDS011;47991;42.974;12.082;2023-09-30T02:39:51;9.00;;;5.00;;
62037;SDS011;47991;42.974;12.082;2023-09-30T02:42:18;8.70;;;4.90;;
62037;SDS011;47991;42.974;12.082;2023-09-30T02:44:45;9.90;;;5.00;;
62037;SDS011;47991;42.974;12.082;2023-09-30T02:47:12;8.90;;;4.60;;
62037;SDS011;47991;42.974;12.082;2023-09-30T02:49:38;9.60;;;5.20;;
62037;SDS011;47991;42.974;12.082;2023-09-30T02:52:05;9.80;;;5.00;;
62037;SDS011;47991;42.974;12.082;2023-09-30T02:54:32;10.00;;;5.20;;
62037;SDS011;47991;42.974;12.082;2023-09-30T02:56:59;9.50;;;5.20;;
62037;SDS011;47991;42.974;12.082;2023-09-30T02:59:25;10.60;;;5.30;;
62037;SDS011;47991;42.974;12.082;2023-09-30T03:01:53;10.60;;;5.00;;
62037;SDS011;47991;42.974;12.082;2023-09-30T03:04:20;9.30;;;4.80;;
62037;SDS011;47991;42.974;12.082;2023-09-30T03:06:47;9.70;;;4.80;;
62037;SDS011;47991;42.974;12.082;2023-09-30T03:09:14;10.80;;;5.10;;
62037;SDS011;47991;42.974;12.082;2023-09-30T03:11:41;10.20;;;4.60;;
62037;SDS011;47991;42.974;12.082;2023-09-30T03:14:12;9.00;;;4.70;;
62037;SDS011;47991;42.974;12.082;2023-09-30T03:16:39;8.30;;;4.90;;
62037;SDS011;47991;42.974;12.082;2023-09-30T03:19:08;10.40;;;5.60;;
62037;SDS011;47991;42.974;12.082;2023-09-30T03:21:35;12.20;;;5.20;;
62037;SDS011;47991;42.974;12.082;2023-09-30T03:24:04;9.90;;;4.90;;
62037;SDS011;47991;42.974;12.082;2023-09-30T03:26:34;10.00;;;5.20;;
62037;SDS011;47991;42.974;12.082;2023-09-30T03:29:02;9.80;;;5.40;;
62037;SDS011;47991;42.974;12.082;2023-09-30T03:31:32;12.00;;;5.10;;
62037;SDS011;47991;42.974;12.082;2023-09-30T03:33:58;16.80;;;5.60;;
62037;SDS011;47991;42.974;12.082;2023-09-30T03:36:26;10.20;;;5.20;;
62037;SDS011;47991;42.974;12.082;2023-09-30T03:38:53;8.10;;;5.00;;
62037;SDS011;47991;42.974;12.082;2023-09-30T03:41:21;12.20;;;5.50;;
62037;SDS011;47991;42.974;12.082;2023-09-30T03:43:48;9.60;;;4.90;;
62037;SDS011;47991;42.974;12.082;2023-09-30T03:46:15;9.50;;;4.80;;
62037;SDS011;47991;42.974;12.082;2023-09-30T03:48:43;11.30;;;5.10;;
62037;SDS011;47991;42.974;12.082;2023-09-30T03:51:11;11.70;;;5.40;;
62037;SDS011;47991;42.974;12.082;2023-09-30T03:53:42;8.80;;;4.70;;
62037;SDS011;47991;42.974;12.082;2023-09-30T03:56:09;11.00;;;5.30;;
62037;SDS011;47991;42.974;12.082;2023-09-30T03:58:40;9.40;;;4.70;;
62037;SDS011;47991;42.974;12.082;2023-09-30T04:01:08;9.80;;;4.40;;
62037;SDS011;47991;42.974;12.082;2023-09-30T04:03:43;8.90;;;5.10;;
62037;SDS011;47991;42.974;12.082;2023-09-30T04:06:10;7.80;;;4.60;;
62037;SDS011;47991;42.974;12.082;2023-09-30T04:08:37;9.60;;;5.40;;
62037;SDS011;47991;42.974;12.082;2023-09-30T04:11:04;10.20;;;5.20;;
62037;SDS011;47991;42.974;12.082;2023-09-30T04:13:31;11.70;;;5.20;;
62037;SDS011;47991;42.974;12.082;2023-09-30T04:15:59;11.20;;;5.20;;
62037;SDS011;47991;42.974;12.082;2023-09-30T04:18:26;11.70;;;5.20;;
62037;SDS011;47991;42.974;12.082;2023-09-30T04:20:53;9.40;;;6.30;;
62037;SDS011;47991;42.974;12.082;2023-09-30T04:23:20;8.90;;;5.00;;
62037;SDS011;47991;42.974;12.082;2023-09-30T04:25:46;8.20;;;4.40;;
62037;SDS011;47991;42.974;12.082;2023-09-30T04:28:14;11.40;;;5.70;;
62037;SDS011;47991;42.974;12.082;2023-09-30T04:30:42;10.00;;;5.50;;
62037;SDS011;47991;42.974;12.082;2023-09-30T04:33:09;9.30;;;5.10;;
62037;SDS011;47991;42.974;12.082;2023-09-30T04:35:38;13.20;;;5.70;;
62037;SDS011;47991;42.974;12.082;2023-09-30T04:38:05;10.30;;;6.00;;
62037;SDS011;47991;42.974;12.082;2023-09-30T04:40:32;8.90;;;5.30;;
62037;SDS011;47991;42.974;12.082;2023-09-30T04:43:00;9.40;;;5.20;;
62037;SDS011;47991;42.974;12.082;2023-09-30T04:45:27;11.40;;;5.60;;
62037;SDS011;47991;42.974;12.082;2023-09-30T04:47:54;9.70;;;5.00;;
62037;SDS011;47991;42.974;12.082;2023-09-30T04:50:24;9.10;;;5.20;;
62037;SDS011;47991;42.974;12.082;2023-09-30T04:52:51;11.40;;;6.00;;
62037;SDS011;47991;42.974;12.082;2023-09-30T04:55:19;10.80;;;5.60;;
62037;SDS011;47991;42.974;12.082;2023-09-30T04:57:47;13.20;;;6.50;;
62037;SDS011;47991;42.974;12.082;2023-09-30T05:00:18;10.40;;;6.00;;
62037;SDS011;47991;42.974;12.082;2023-09-30T05:02:51;9.30;;;5.60;;
62037;SDS011;47991;42.974;12.082;2023-09-30T05:05:19;9.10;;;5.20;;
62037;SDS011;47991;42.974;12.082;2023-09-30T05:07:46;15.40;;;6.00;;
62037;SDS011;47991;42.974;12.082;2023-09-30T05:10:14;11.10;;;5.60;;
62037;SDS011;47991;42.974;12.082;2023-09-30T05:12:43;12.20;;;5.80;;
62037;SDS011;47991;42.974;12.082;2023-09-30T05:15:14;10.30;;;5.90;;
62037;SDS011;47991;42.974;12.082;2023-09-30T05:17:42;8.70;;;5.40;;
62037;SDS011;47991;42.974;12.082;2023-09-30T05:20:13;9.00;;;5.20;;
62037;SDS011;47991;42.974;12.082;2023-09-30T05:22:43;8.90;;;5.20;;
62037;SDS011;47991;42.974;12.082;2023-09-30T05:25:15;10.30;;;4.90;;
62037;SDS011;47991;42.974;12.082;2023-09-30T05:27:43;11.20;;;5.50;;
62037;SDS011;47991;42.974;12.082;2023-09-30T05:30:11;9.30;;;5.40;;
62037;SDS011;47991;42.974;12.082;2023-09-30T05:32:38;9.90;;;5.70;;
62037;SDS011;47991;42.974;12.082;2023-09-30T05:35:06;9.80;;;5.20;;
62037;SDS011;47991;42.974;12.082;2023-09-30T05:37:40;10.70;;;5.60;;
62037;SDS011;47991;42.974;12.082;2023-09-30T05:40:08;11.40;;;5.00;;
62037;SDS011;47991;42.974;12.082;2023-09-30T05:42:57;10.70;;;5.90;;
62037;SDS011;47991;42.974;12.082;2023-09-30T05:45:24;10.80;;;5.20;;
62037;SDS011;47991;42.974;12.082;2023-09-30T05:47:55;11.00;;;5.80;;
62037;SDS011;47991;42.974;12.082;2023-09-30T05:50:24;9.90;;;5.60;;
62037;SDS011;47991;42.974;12.082;2023-09-30T05:52:53;11.10;;;5.80;;
62037;SDS011;47991;42.974;12.082;2023-09-30T05:55:21;9.80;;;5.70;;
62037;SDS011;47991;42.974;12.082;2023-09-30T05:57:49;11.10;;;5.50;;
62037;SDS011;47991;42.974;12.082;2023-09-30T06:00:16;8.70;;;5.30;;
62037;SDS011;47991;42.974;12.082;2023-09-30T06:02:54;9.00;;;5.30;;
62037;SDS011;47991;42.974;12.082;2023-09-30T06:05:22;8.70;;;5.20;;
62037;SDS011;47991;42.974;12.082;2023-09-30T06:07:49;11.70;;;5.50;;
62037;SDS011;47991;42.974;12.082;2023-09-30T06:10:16;9.50;;;5.20;;
62037;SDS011;47991;42.974;12.082;2023-09-30T06:12:45;11.10;;;5.60;;
62037;SDS011;47991;42.974;12.082;2023-09-30T06:15:13;8.30;;;5.30;;
62037;SDS011;47991;42.974;12.082;2023-09-30T06:17:41;10.20;;;5.80;;
62037;SDS011;47991;42.974;12.082;2023-09-30T06:20:08;8.60;;;6.30;;
62037;SDS011;47991;42.974;12.082;2023-09-30T06:22:42;9.80;;;6.20;;
62037;SDS011;47991;42.974;12.082;2023-09-30T06:25:13;8.80;;;5.30;;
62037;SDS011;47991;42.974;12.082;2023-09-30T06:27:43;10.50;;;6.30;;
62037;SDS011;47991;42.974;12.082;2023-09-30T06:30:11;12.10;;;5.70;;
62037;SDS011;47991;42.974;12.082;2023-09-30T06:32:39;9.50;;;5.20;;
62037;SDS011;47991;42.974;12.082;2023-09-30T06:35:07;10.00;;;5.50;;
62037;SDS011;47991;42.974;12.082;2023-09-30T06:37:36;10.20;;;5.70;;
62037;SDS011;47991;42.974;12.082;2023-09-30T06:40:07;9.30;;;5.10;;
62037;SDS011;47991;42.974;12.082;2023-09-30T06:42:35;8.50;;;5.40;;
62037;SDS011;47991;42.974;12.082;2023-09-30T06:45:03;10.70;;;5.50;;
62037;SDS011;47991;42.974;12.082;2023-09-30T06:47:33;9.40;;;5.30;;
62037;SDS011;47991;42.974;12.082;2023-09-30T06:50:08;9.50;;;5.20;;
62037;SDS011;47991;42.974;12.082;2023-09-30T06:52:40;9.90;;;5.50;;
62037;SDS011;47991;42.974;12.082;2023-09-30T06:55:08;7.60;;;5.30;;
62037;SDS011;47991;42.974;12.082;2023-09-30T06:57:37;10.00;;;5.20;;
62037;SDS011;47991;42.974;12.082;2023-09-30T07:02:36;10.10;;;5.90;;
62037;SDS011;47991;42.974;12.082;2023-09-30T07:05:07;10.40;;;5.80;;
62037;SDS011;47991;42.974;12.082;2023-09-30T07:07:35;12.70;;;6.40;;
62037;SDS011;47991;42.974;12.082;2023-09-30T07:10:02;11.80;;;6.10;;
62037;SDS011;47991;42.974;12.082;2023-09-30T07:12:30;10.50;;;6.10;;
62037;SDS011;47991;42.974;12.082;2023-09-30T07:14:58;11.70;;;6.10;;
62037;SDS011;47991;42.974;12.082;2023-09-30T07:17:25;18.10;;;6.20;;
62037;SDS011;47991;42.974;12.082;2023-09-30T07:19:53;14.60;;;5.90;;
62037;SDS011;47991;42.974;12.082;2023-09-30T07:22:20;12.40;;;7.60;;
62037;SDS011;47991;42.974;12.082;2023-09-30T07:24:47;14.20;;;9.40;;
62037;SDS011;47991;42.974;12.082;2023-09-30T07:27:14;13.30;;;8.80;;
62037;SDS011;47991;42.974;12.082;2023-09-30T07:29:41;13.10;;;8.00;;
62037;SDS011;47991;42.974;12.082;2023-09-30T07:32:08;13.60;;;7.90;;
62037;SDS011;47991;42.974;12.082;2023-09-30T07:34:35;12.20;;;7.60;;
62037;SDS011;47991;42.974;12.082;2023-09-30T07:37:02;12.10;;;7.30;;
62037;SDS011;47991;42.974;12.082;2023-09-30T07:39:30;13.10;;;7.30;;
62037;SDS011;47991;42.974;12.082;2023-09-30T07:41:57;12.60;;;7.20;;
62037;SDS011;47991;42.974;12.082;2023-09-30T07:44:24;12.80;;;6.40;;
62037;SDS011;47991;42.974;12.082;2023-09-30T07:46:51;9.70;;;5.80;;
62037;SDS011;47991;42.974;12.082;2023-09-30T07:49:18;9.60;;;6.50;;
62037;SDS011;47991;42.974;12.082;2023-09-30T07:51:45;15.50;;;6.20;;
62037;SDS011;47991;42.974;12.082;2023-09-30T07:54:15;10.90;;;6.70;;
62037;SDS011;47991;42.974;12.082;2023-09-30T07:56:43;10.20;;;7.00;;
62037;SDS011;47991;42.974;12.082;2023-09-30T07:59:10;12.50;;;6.70;;
62037;SDS011;47991;42.974;12.082;2023-09-30T08:01:37;12.20;;;7.10;;
62037;SDS011;47991;42.974;12.082;2023-09-30T08:04:04;12.50;;;6.60;;
62037;SDS011;47991;42.974;12.082;2023-09-30T08:06:31;16.30;;;6.50;;
62037;SDS011;47991;42.974;12.082;2023-09-30T08:08:57;12.10;;;6.40;;
62037;SDS011;47991;42.974;12.082;2023-09-30T08:11:24;10.30;;;5.60;;
62037;SDS011;47991;42.974;12.082;2023-09-30T08:13:57;12.40;;;5.60;;
62037;SDS011;47991;42.974;12.082;2023-09-30T08:16:26;10.40;;;5.70;;
62037;SDS011;47991;42.974;12.082;2023-09-30T08:18:52;9.90;;;4.80;;
62037;SDS011;47991;42.974;12.082;2023-09-30T08:21:19;8.50;;;4.60;;
62037;SDS011;47991;42.974;12.082;2023-09-30T08:23:46;7.80;;;4.50;;
62037;SDS011;47991;42.974;12.082;2023-09-30T08:26:13;7.90;;;3.80;;
62037;SDS011;47991;42.974;12.082;2023-09-30T08:28:40;10.70;;;4.70;;
62037;SDS011;47991;42.974;12.082;2023-09-30T08:31:07;9.20;;;4.60;;
62037;SDS011;47991;42.974;12.082;2023-09-30T08:33:35;10.80;;;4.70;;
62037;SDS011;47991;42.974;12.082;2023-09-30T08:36:10;9.30;;;4.10;;
62037;SDS011;47991;42.974;12.082;2023-09-30T08:38:37;10.80;;;4.30;;
62037;SDS011;47991;42.974;12.082;2023-09-30T08:41:05;10.10;;;4.30;;
62037;SDS011;47991;42.974;12.082;2023-09-30T08:43:39;9.60;;;4.40;;
62037;SDS011;47991;42.974;12.082;2023-09-30T08:46:06;8.10;;;4.30;;
62037;SDS011;47991;42.974;12.082;2023-09-30T08:48:34;11.00;;;4.40;;
62037;SDS011;47991;42.974;12.082;2023-09-30T08:51:01;10.20;;;4.30;;
62037;SDS011;47991;42.974;12.082;2023-09-30T08:53:29;8.70;;;4.20;;
62037;SDS011;47991;42.974;12.082;2023-09-30T08:55:57;7.30;;;4.20;;
62037;SDS011;47991;42.974;12.082;2023-09-30T09:00:55;8.70;;;4.50;;
62037;SDS011;47991;42.974;12.082;2023-09-30T09:03:22;8.50;;;4.10;;
62037;SDS011;47991;42.974;12.082;2023-09-30T09:05:54;8.10;;;4.00;;
62037;SDS011;47991;42.974;12.082;2023-09-30T09:08:24;7.10;;;3.60;;
62037;SDS011;47991;42.974;12.082;2023-09-30T09:13:23;7.40;;;3.80;;
62037;SDS011;47991;42.974;12.082;2023-09-30T09:16:09;8.20;;;3.60;;
62037;SDS011;47991;42.974;12.082;2023-09-30T09:18:36;8.30;;;3.80;;
62037;SDS011;47991;42.974;12.082;2023-09-30T09:23:40;6.90;;;3.70;;
62037;SDS011;47991;42.974;12.082;2023-09-30T09:26:11;9.20;;;4.00;;
62037;SDS011;47991;42.974;12.082;2023-09-30T09:29:02;10.70;;;3.50;;
62037;SDS011;47991;42.974;12.082;2023-09-30T09:31:31;7.00;;;3.40;;
62037;SDS011;47991;42.974;12.082;2023-09-30T09:34:03;8.20;;;3.40;;
62037;SDS011;47991;42.974;12.082;2023-09-30T09:36:39;8.30;;;3.80;;
62037;SDS011;47991;42.974;12.082;2023-09-30T09:39:08;7.10;;;3.50;;
62037;SDS011;47991;42.974;12.082;2023-09-30T09:41:51;6.60;;;3.30;;
62037;SDS011;47991;42.974;12.082;2023-09-30T09:44:20;8.00;;;3.60;;
62037;SDS011;47991;42.974;12.082;2023-09-30T09:46:51;7.20;;;3.50;;
62037;SDS011;47991;42.974;12.082;2023-09-30T09:49:19;8.20;;;3.60;;
62037;SDS011;47991;42.974;12.082;2023-09-30T09:51:48;7.10;;;3.60;;
62037;SDS011;47991;42.974;12.082;2023-09-30T09:54:16;8.80;;;3.60;;
62037;SDS011;47991;42.974;12.082;2023-09-30T09:56:44;7.80;;;3.20;;
62037;SDS011;47991;42.974;12.082;2023-09-30T09:59:12;8.00;;;3.70;;
62037;SDS011;47991;42.974;12.082;2023-09-30T10:01:40;7.40;;;3.40;;
62037;SDS011;47991;42.974;12.082;2023-09-30T10:04:11;7.60;;;3.30;;
62037;SDS011;47991;42.974;12.082;2023-09-30T10:06:41;6.80;;;3.20;;
62037;SDS011;47991;42.974;12.082;2023-09-30T10:09:14;7.80;;;3.50;;
62037;SDS011;47991;42.974;12.082;2023-09-30T10:11:43;6.30;;;2.80;;
62037;SDS011;47991;42.974;12.082;2023-09-30T10:14:29;9.00;;;3.10;;
62037;SDS011;47991;42.974;12.082;2023-09-30T10:16:59;8.30;;;3.30;;
62037;SDS011;47991;42.974;12.082;2023-09-30T10:19:26;6.70;;;3.20;;
62037;SDS011;47991;42.974;12.082;2023-09-30T10:24:53;7.00;;;2.90;;
62037;SDS011;47991;42.974;12.082;2023-09-30T10:35:20;7.40;;;3.40;;
62037;SDS011;47991;42.974;12.082;2023-09-30T10:37:48;6.80;;;3.40;;
62037;SDS011;47991;42.974;12.082;2023-09-30T10:40:49;7.10;;;3.30;;
62037;SDS011;47991;42.974;12.082;2023-09-30T10:43:28;7.40;;;3.50;;
62037;SDS011;47991;42.974;12.082;2023-09-30T10:45:55;8.80;;;3.50;;
62037;SDS011;47991;42.974;12.082;2023-09-30T10:50:52;8.50;;;3.90;;
62037;SDS011;47991;42.974;12.082;2023-09-30T10:53:22;9.30;;;4.00;;
62037;SDS011;47991;42.974;12.082;2023-09-30T11:07:27;8.00;;;3.30;;
62037;SDS011;47991;42.974;12.082;2023-09-30T11:09:56;5.60;;;2.80;;
62037;SDS011;47991;42.974;12.082;2023-09-30T11:12:26;8.40;;;3.00;;
62037;SDS011;47991;42.974;12.082;2023-09-30T11:14:58;6.50;;;3.00;;
62037;SDS011;47991;42.974;12.082;2023-09-30T11:17:27;17.60;;;3.30;;
62037;SDS011;47991;42.974;12.082;2023-09-30T11:19:54;7.60;;;2.30;;
62037;SDS011;47991;42.974;12.082;2023-09-30T11:22:21;5.00;;;2.40;;
62037;SDS011;47991;42.974;12.082;2023-09-30T11:24:47;5.30;;;2.40;;
62037;SDS011;47991;42.974;12.082;2023-09-30T11:27:21;4.30;;;2.20;;
62037;SDS011;47991;42.974;12.082;2023-09-30T11:29:50;5.40;;;2.80;;
62037;SDS011;47991;42.974;12.082;2023-09-30T11:32:24;4.30;;;2.40;;
62037;SDS011;47991;42.974;12.082;2023-09-30T11:34:52;6.30;;;2.50;;
62037;SDS011;47991;42.974;12.082;2023-09-30T11:37:19;6.40;;;2.60;;
62037;SDS011;47991;42.974;12.082;2023-09-30T11:39:45;4.80;;;2.40;;
62037;SDS011;47991;42.974;12.082;2023-09-30T11:42:15;5.90;;;2.30;;
62037;SDS011;47991;42.974;12.082;2023-09-30T11:44:46;3.60;;;2.10;;
62037;SDS011;47991;42.974;12.082;2023-09-30T11:47:13;5.20;;;2.30;;
62037;SDS011;47991;42.974;12.082;2023-09-30T11:49:41;5.50;;;2.50;;
62037;SDS011;47991;42.974;12.082;2023-09-30T11:52:14;6.00;;;2.40;;
62037;SDS011;47991;42.974;12.082;2023-09-30T11:54:41;5.30;;;2.10;;
62037;SDS011;47991;42.974;12.082;2023-09-30T11:57:14;5.20;;;2.40;;
62037;SDS011;47991;42.974;12.082;2023-09-30T11:59:41;6.30;;;2.30;;
62037;SDS011;47991;42.974;12.082;2023-09-30T12:02:08;4.30;;;2.00;;
62037;SDS011;47991;42.974;12.082;2023-09-30T12:04:35;4.40;;;2.40;;
62037;SDS011;47991;42.974;12.082;2023-09-30T12:07:02;5.90;;;2.60;;
62037;SDS011;47991;42.974;12.082;2023-09-30T12:09:28;8.90;;;2.80;;
62037;SDS011;47991;42.974;12.082;2023-09-30T12:11:56;4.30;;;2.50;;
62037;SDS011;47991;42.974;12.082;2023-09-30T12:14:24;5.00;;;2.60;;
62037;SDS011;47991;42.974;12.082;2023-09-30T12:16:50;5.50;;;2.80;;
62037;SDS011;47991;42.974;12.082;2023-09-30T12:19:17;5.60;;;2.50;;
62037;SDS011;47991;42.974;12.082;2023-09-30T12:21:44;10.40;;;3.00;;
62037;SDS011;47991;42.974;12.082;2023-09-30T12:24:12;7.40;;;3.00;;
62037;SDS011;47991;42.974;12.082;2023-09-30T12:26:43;6.60;;;2.80;;
62037;SDS011;47991;42.974;12.082;2023-09-30T12:29:14;5.20;;;2.80;;
62037;SDS011;47991;42.974;12.082;2023-09-30T12:31:46;6.70;;;2.90;;
62037;SDS011;47991;42.974;12.082;2023-09-30T12:34:13;5.50;;;2.80;;
62037;SDS011;47991;42.974;12.082;2023-09-30T12:36:40;9.00;;;3.10;;
62037;SDS011;47991;42.974;12.082;2023-09-30T12:39:07;7.60;;;3.40;;
62037;SDS011;47991;42.974;12.082;2023-09-30T12:41:38;12.20;;;3.30;;
62037;SDS011;47991;42.974;12.082;2023-09-30T12:44:06;6.00;;;2.90;;
62037;SDS011;47991;42.974;12.082;2023-09-30T12:46:33;9.00;;;3.10;;
62037;SDS011;47991;42.974;12.082;2023-09-30T12:49:06;6.70;;;3.10;;
62037;SDS011;47991;42.974;12.082;2023-09-30T12:51:33;5.90;;;2.90;;
62037;SDS011;47991;42.974;12.082;2023-09-30T12:54:00;8.80;;;2.90;;
62037;SDS011;47991;42.974;12.082;2023-09-30T12:56:27;7.70;;;3.20;;
62037;SDS011;47991;42.974;12.082;2023-09-30T12:58:56;5.70;;;3.10;;
62037;SDS011;47991;42.974;12.082;2023-09-30T13:01:23;5.40;;;2.90;;
62037;SDS011;47991;42.974;12.082;2023-09-30T13:03:50;6.50;;;3.00;;
62037;SDS011;47991;42.974;12.082;2023-09-30T13:06:17;5.60;;;2.90;;
62037;SDS011;47991;42.974;12.082;2023-09-30T13:08:43;7.10;;;2.80;;
62037;SDS011;47991;42.974;12.082;2023-09-30T13:11:10;5.80;;;2.70;;
62037;SDS011;47991;42.974;12.082;2023-09-30T13:13:39;5.60;;;2.40;;
62037;SDS011;47991;42.974;12.082;2023-09-30T13:16:06;6.20;;;2.40;;
62037;SDS011;47991;42.974;12.082;2023-09-30T13:18:35;5.60;;;2.70;;
62037;SDS011;47991;42.974;12.082;2023-09-30T13:21:02;5.20;;;2.90;;
62037;SDS011;47991;42.974;12.082;2023-09-30T13:23:32;4.20;;;2.40;;
62037;SDS011;47991;42.974;12.082;2023-09-30T13:25:59;4.40;;;2.10;;
62037;SDS011;47991;42.974;12.082;2023-09-30T13:28:26;4.40;;;2.50;;
62037;SDS011;47991;42.974;12.082;2023-09-30T13:30:56;6.00;;;2.70;;
62037;SDS011;47991;42.974;12.082;2023-09-30T13:33:22;5.10;;;2.80;;
62037;SDS011;47991;42.974;12.082;2023-09-30T13:35:48;3.90;;;2.40;;
62037;SDS011;47991;42.974;12.082;2023-09-30T13:38:15;5.30;;;2.70;;
62037;SDS011;47991;42.974;12.082;2023-09-30T13:40:42;7.30;;;2.90;;
62037;SDS011;47991;42.974;12.082;2023-09-30T13:43:08;10.80;;;3.10;;
62037;SDS011;47991;42.974;12.082;2023-09-30T13:45:34;6.60;;;3.00;;
62037;SDS011;47991;42.974;12.082;2023-09-30T13:48:00;12.60;;;3.10;;
62037;SDS011;47991;42.974;12.082;2023-09-30T13:50:26;6.60;;;2.60;;
62037;SDS011;47991;42.974;12.082;2023-09-30T13:52:53;4.40;;;2.50;;
62037;SDS011;47991;42.974;12.082;2023-09-30T13:55:19;4.90;;;2.90;;
62037;SDS011;47991;42.974;12.082;2023-09-30T13:57:46;5.30;;;2.70;;
62037;SDS011;47991;42.974;12.082;2023-09-30T14:00:13;7.40;;;3.30;;
62037;SDS011;47991;42.974;12.082;2023-09-30T14:02:40;6.70;;;3.20;;
62037;SDS011;47991;42.974;12.082;2023-09-30T14:05:07;8.00;;;3.10;;
62037;SDS011;47991;42.974;12.082;2023-09-30T14:07:35;7.00;;;2.80;;
62037;SDS011;47991;42.974;12.082;2023-09-30T14:10:03;6.80;;;3.10;;
62037;SDS011;47991;42.974;12.082;2023-09-30T14:12:29;6.60;;;2.90;;
62037;SDS011;47991;42.974;12.082;2023-09-30T14:14:57;5.50;;;2.70;;
62037;SDS011;47991;42.974;12.082;2023-09-30T14:17:23;6.30;;;2.90;;
62037;SDS011;47991;42.974;12.082;2023-09-30T14:19:51;8.70;;;3.40;;
62037;SDS011;47991;42.974;12.082;2023-09-30T14:22:17;7.10;;;2.90;;
62037;SDS011;47991;42.974;12.082;2023-09-30T14:24:44;6.60;;;3.20;;
62037;SDS011;47991;42.974;12.082;2023-09-30T14:27:11;6.60;;;2.80;;
62037;SDS011;47991;42.974;12.082;2023-09-30T14:29:40;5.40;;;2.70;;
62037;SDS011;47991;42.974;12.082;2023-09-30T14:32:06;4.60;;;2.70;;
62037;SDS011;47991;42.974;12.082;2023-09-30T14:34:32;6.10;;;2.80;;
62037;SDS011;47991;42.974;12.082;2023-09-30T14:36:59;5.50;;;3.00;;
62037;SDS011;47991;42.974;12.082;2023-09-30T14:39:25;8.20;;;3.50;;
62037;SDS011;47991;42.974;12.082;2023-09-30T14:41:52;6.00;;;2.90;;
62037;SDS011;47991;42.974;12.082;2023-09-30T14:44:19;6.40;;;3.00;;
62037;SDS011;47991;42.974;12.082;2023-09-30T14:46:47;6.50;;;3.10;;
62037;SDS011;47991;42.974;12.082;2023-09-30T14:49:14;6.50;;;2.60;;
62037;SDS011;47991;42.974;12.082;2023-09-30T14:51:41;7.70;;;2.90;;
62037;SDS011;47991;42.974;12.082;2023-09-30T14:54:07;6.60;;;3.00;;
62037;SDS011;47991;42.974;12.082;2023-09-30T14:56:33;5.30;;;2.70;;
62037;SDS011;47991;42.974;12.082;2023-09-30T14:58:59;6.40;;;2.90;;
62037;SDS011;47991;42.974;12.082;2023-09-30T15:01:25;6.50;;;2.90;;
62037;SDS011;47991;42.974;12.082;2023-09-30T15:03:52;4.90;;;2.50;;
62037;SDS011;47991;42.974;12.082;2023-09-30T15:06:18;6.50;;;2.80;;
62037;SDS011;47991;42.974;12.082;2023-09-30T15:08:44;5.50;;;2.90;;
62037;SDS011;47991;42.974;12.082;2023-09-30T15:11:13;6.00;;;2.90;;
62037;SDS011;47991;42.974;12.082;2023-09-30T15:13:43;7.50;;;3.00;;